• Join FlightAware (Why Join?)
  • Login
  • US Flag 
Gobble Gobble! 
04:21PM EST


 

Airport Tracker/Info


-or-


 

Live Flight TrackerFlight Track Log ✈ ASQ4252 ✈ 07-Jun-2013 ✈ KPWM - KIAD

Flight Track Log - Related Links

Times and Time Zones

All times are in EDT time to prevent confusion due to time zone crossing. See the ASQ4252 flight status page for this flight to view local times or setup timezone preferences in your user account.

Time Position Orientation Groundspeed Altitude Reporting Facility
EDT Latitude Longitude Course Direction KTS MPH feet Rate Location/Type
05:54AM 43.6469 -70.3914 226° Southwest 193 222 1,800  Level Boston Center
05:55AM 43.6272 -70.4522 246° West 207 238 4,500 2,160 Climbing Boston Center
05:56AM 43.5736 -70.4886 206° Southwest 196 226 6,200 1,980 Climbing Boston Center
05:57AM 43.4753 -70.2430 229° Southwest  Level FlightAware Approximate
05:57AM 43.5078 -70.5250 202° Southwest 245 282 8,500  Level Boston Center
05:58AM 43.4181 -70.3471 235° Southwest  Level FlightAware Approximate
05:58AM 43.4375 -70.5644 202° Southwest 263 303 10,300  Level Boston Center
05:59AM 43.3520 -70.4406 226° Southwest  Level FlightAware Approximate
05:59AM 43.3756 -70.6006 203° Southwest 269 310 12,000  Level Boston Center
06:00AM 43.2928 -70.6486 203° Southwest 279 321 13,200 1,020 Climbing Boston Center
06:01AM 43.2164 -70.6908 202° Southwest 316 364 14,100 1,200 Climbing Boston Center
06:02AM 43.1236 -70.7503 205° Southwest 330 380 15,600 1,260 Climbing Boston Center
06:03AM 43.0514 -70.8036 208° Southwest 336 387 16,700 1,080 Climbing Boston Center
06:04AM 42.9606 -70.8683 208° Southwest 336 387 17,800 1,020 Climbing Boston Center
06:05AM 42.8842 -70.9183 206° Southwest 336 387 18,800 960 Climbing Boston Center
06:06AM 42.8036 -70.9714 206° Southwest 341 392 19,800 1,200 Climbing Boston Center
06:07AM 42.7144 -71.0158 200° South 341 392 21,200 1,380 Climbing Boston Center
06:08AM 42.6275 -71.0575 199° South 341 392 22,600 1,320 Climbing Boston Center
06:09AM 42.5447 -71.0986 200° South 328 377 23,900 1,200 Climbing Boston Center
06:10AM 42.4869 -71.1675 221° Southwest 288 331 25,100 1,020 Climbing Boston Center
06:11AM 42.4694 -71.2664 257° West 273 314 26,000 840 Climbing Boston Center
06:12AM 42.4475 -71.3708 254° West 273 314 26,800 720 Climbing Boston Center
06:13AM 42.4275 -71.4781 256° West 293 337 27,500 600 Climbing Boston Center
06:14AM 42.3994 -71.5939 252° West 305 351 28,000 180 Climbing Boston Center
06:15AM 42.3692 -71.7403 254° West 325 374 28,000  Level Boston Center
06:16AM 42.3428 -71.8700 255° West 347 399 28,000  Level Boston Center
06:17AM 42.3142 -72.0078 254° West 367 422 28,000  Level Boston Center
06:18AM 42.2833 -72.1428 253° West 374 430 28,000  Level Boston Center
06:19AM 42.2544 -72.2803 254° West 379 436 28,000  Level Boston Center
06:20AM 42.2253 -72.4206 254° West 379 436 28,000 60 Level Boston Center
06:21AM 42.1961 -72.5606 254° West 379 436 28,200 1,020 Climbing Boston Center
06:22AM 42.1667 -72.6894 253° West 374 430 30,100 1,860 Climbing Boston Center
06:23AM 42.1164 -72.7956 237° Southwest 355 409 32,000 1,500 Climbing Boston Center
06:24AM 42.0597 -72.8958 233° Southwest 327 376 33,100 960 Climbing Boston Center
06:25AM 42.0053 -72.9850 231° Southwest 327 376 34,200 900 Climbing Boston Center
06:26AM 41.9336 -73.1097 232° Southwest 343 395 35,100 900 Climbing Boston Center
06:27AM 41.8853 -73.1875 230° Southwest 335 386 36,000 420 Climbing Boston Center
06:28AM 41.8283 -73.2842 232° Southwest 330 380 36,000  Level Boston Center
06:29AM 41.7692 -73.3864 232° Southwest 336 387 36,000  Level Boston Center
06:30AM 41.7056 -73.4911 231° Southwest 348 400 36,000  Level Boston Center
06:31AM 41.6464 -73.5986 234° Southwest 360 414 36,000 -60 Level Boston Center
06:32AM 41.6344 -73.7400 264° West 348 400 35,900 -540 Descending Boston Center
06:33AM 41.6286 -73.8703 267° West 354 407 35,000 -1,020 Descending Boston Center
06:34AM 41.5586 -73.9547 222° Southwest 350 403 33,900 -1,020 Descending Boston Center
06:35AM 41.4833 -74.0278 216° Southwest 363 418 33,100 -1,020 Descending New York Center
06:36AM 41.3889 -74.1225 217° Southwest 370 426 32,000 -600 Descending New York Center
06:37AM 41.3203 -74.1911 217° Southwest 383 441 31,900 -540 Descending New York Center
06:38AM 41.2219 -74.2825 215° Southwest 393 452 31,000 -960 Descending New York Center
06:39AM 41.1297 -74.3658 214° Southwest 399 459 30,000 -1,020 Descending New York Center
06:40AM 41.0394 -74.4600 218° Southwest 404 465 29,000 -1,020 Descending New York Center
06:41AM 40.9469 -74.5483 216° Southwest 411 473 28,000 -540 Descending New York Center
06:42AM 40.8808 -74.6600 232° Southwest 396 456 28,000  Level New York Center
06:43AM 40.8411 -74.7922 248° West 391 450 28,000  Level New York Center
06:44AM 40.7986 -74.9350 249° West 401 461 28,000 -240 Level New York Center
06:45AM 40.7564 -75.0694 248° West 401 461 27,600 -780 Descending New York Center
06:46AM 40.7181 -75.1983 249° West 401 461 26,500 -1,080 Descending New York Center
06:47AM 40.6803 -75.3164 247° West 377 434 25,500 -1,080 Descending New York Center
06:48AM 40.6381 -75.4367 245° Southwest 370 426 24,400 -1,080 Descending New York Center
06:49AM 40.5878 -75.5506 240° Southwest 365 420 23,300 -1,080 Descending New York Center
06:50AM 40.5558 -75.6714 251° West 360 414 22,300 -1,140 Descending New York Center
06:51AM 40.4944 -75.7925 236° Southwest 349 402 21,100 -1,200 Descending New York Center
06:52AM 40.4233 -75.8911 227° Southwest 369 425 20,000 -600 Descending New York Center
06:53AM 40.3464 -75.9861 223° Southwest 380 437 20,000 -120 Level New York Center
06:54AM 40.2731 -76.0867 226° Southwest 385 443 19,800 -780 Descending New York Center
06:56AM 40.1333 -76.2667 225° Southwest 369 425 17,900 -1,080 Descending Potomac TRACON
06:57AM 40.0833 -76.3667 237° Southwest 371 427 16,900 -1,020 Descending Potomac TRACON
06:58AM 40.0333 -76.4667 237° Southwest 359 413 16,000 -960 Descending Potomac TRACON
06:59AM 39.9833 -76.5833 241° Southwest 363 418 15,100 -540 Descending Potomac TRACON
07:00AM 39.9333 -76.6833 237° Southwest 361 415 15,000 -60 Descending Potomac TRACON
07:01AM 39.9000 -76.7833 247° West 306 352 15,000 -60 Level Potomac TRACON
07:02AM 39.8500 -76.8667 232° Southwest 300 345 14,900 -540 Descending Potomac TRACON
07:03AM 39.8167 -76.9667 247° West 291 335 14,000 -960 Descending Potomac TRACON
07:04AM 39.7667 -77.0500 232° Southwest 286 329 13,000 -1,080 Descending Potomac TRACON
07:05AM 39.7333 -77.1167 237° Southwest 280 322 12,000 -1,080 Descending Potomac TRACON
07:06AM 39.6833 -77.2167 237° Southwest 278 320 11,000 -1,080 Descending Potomac TRACON
07:07AM 39.6500 -77.2833 237° Southwest 278 320 10,000 -1,320 Descending Potomac TRACON
07:08AM 39.6000 -77.3667 232° Southwest 276 318 8,600 -1,500 Descending Potomac TRACON
07:09AM 39.5500 -77.4167 218° Southwest 268 308 7,000 -1,560 Descending Potomac TRACON
07:10AM 39.4833 -77.4333 191° South 260 299 5,700 -1,200 Descending Potomac TRACON
07:11AM 39.4167 -77.4333 180° South 235 270 4,700 -900 Descending Potomac TRACON
07:12AM 39.3500 -77.4333 180° South 200 230 4,000 -480 Descending Potomac TRACON
07:13AM 39.3000 -77.4333 180° South 199 229 3,800 -360 Descending Potomac TRACON
07:14AM 39.2500 -77.4333 180° South 185 213 3,300 -420 Descending Potomac TRACON
07:15AM 39.2000 -77.4333 180° South 186 214 3,000 -180 Descending Potomac TRACON
07:16AM 39.1500 -77.4333 180° South 180 207 3,000  Level Potomac TRACON
07:17AM 39.1000 -77.4333 180° South 181 208 3,000  Level Potomac TRACON